createdAt,value
2017-08-21T00:00:01.178Z,2.30
2017-08-21T00:02:28.705Z,2.40
2017-08-21T00:04:56.189Z,2.20
2017-08-21T00:07:23.664Z,2.30
2017-08-21T00:09:51.160Z,2.30
2017-08-21T00:12:18.650Z,2.27
2017-08-21T00:14:46.156Z,2.00
2017-08-21T00:17:14.414Z,2.25
2017-08-21T00:19:41.909Z,2.20
2017-08-21T00:22:09.384Z,2.30
2017-08-21T00:24:36.891Z,2.40
2017-08-21T00:27:04.371Z,1.93
2017-08-21T00:29:31.880Z,2.58
2017-08-21T00:31:59.362Z,1.87
2017-08-21T00:34:26.868Z,2.20
2017-08-21T00:36:54.371Z,2.27
2017-08-21T00:39:21.860Z,2.67
2017-08-21T00:41:49.341Z,2.43
2017-08-21T00:44:16.849Z,2.50
2017-08-21T00:46:44.351Z,2.27
2017-08-21T00:49:11.870Z,2.30
2017-08-21T00:51:39.360Z,2.70
2017-08-21T00:54:06.858Z,2.10
2017-08-21T00:56:34.354Z,2.30
2017-08-21T00:59:02.633Z,3.10
2017-08-21T01:01:32.038Z,2.67
2017-08-21T01:03:59.517Z,2.30
2017-08-21T01:06:27.023Z,2.23
2017-08-21T01:08:54.539Z,2.53
2017-08-21T01:11:22.035Z,2.40
2017-08-21T01:13:49.528Z,2.17
2017-08-21T01:16:17.805Z,2.20
2017-08-21T01:18:45.299Z,2.40
2017-08-21T01:21:12.804Z,2.20
2017-08-21T01:23:40.304Z,2.13
2017-08-21T01:26:07.807Z,2.20
2017-08-21T01:28:35.295Z,2.40
2017-08-21T01:31:03.566Z,2.63
2017-08-21T01:33:31.807Z,2.67
2017-08-21T01:35:59.316Z,2.50
2017-08-21T01:38:26.803Z,2.33
2017-08-21T01:40:54.307Z,2.73
2017-08-21T01:43:21.803Z,2.30
2017-08-21T01:45:50.376Z,3.50
2017-08-21T01:48:17.868Z,2.57
2017-08-21T01:50:45.380Z,2.33
2017-08-21T01:53:13.645Z,2.50
2017-08-21T01:55:41.154Z,2.30
2017-08-21T01:58:08.627Z,2.90
2017-08-21T02:00:36.130Z,2.40
2017-08-21T02:03:03.612Z,2.47
2017-08-21T02:05:31.094Z,2.30
2017-08-21T02:07:59.520Z,2.70
2017-08-21T02:10:27.771Z,2.70
2017-08-21T02:12:55.267Z,2.93
2017-08-21T02:15:22.760Z,2.50
2017-08-21T02:17:50.258Z,3.10
2017-08-21T02:20:17.734Z,2.80
2017-08-21T02:22:45.996Z,2.80
2017-08-21T02:25:13.471Z,3.07
2017-08-21T02:27:41.745Z,2.90
2017-08-21T02:30:09.233Z,3.00
2017-08-21T02:32:36.734Z,2.87
2017-08-21T02:35:04.248Z,3.23
2017-08-21T02:37:31.761Z,2.90
2017-08-21T02:39:59.250Z,2.80
2017-08-21T02:42:26.737Z,2.50
2017-08-21T02:44:54.224Z,2.80
2017-08-21T02:47:21.824Z,3.30
2017-08-21T02:49:49.302Z,2.73
2017-08-21T02:52:16.799Z,3.50
2017-08-21T02:54:44.282Z,3.23
2017-08-21T02:57:11.788Z,3.00
2017-08-21T02:59:39.266Z,2.50
2017-08-21T03:02:06.762Z,2.87
2017-08-21T03:04:35.020Z,2.90
2017-08-21T03:07:02.504Z,2.70
2017-08-21T03:09:29.991Z,2.90
2017-08-21T03:11:57.487Z,2.97
2017-08-21T03:14:24.972Z,2.90
2017-08-21T03:16:53.223Z,3.43
2017-08-21T03:19:20.707Z,2.60
2017-08-21T03:21:49.003Z,2.47
2017-08-21T03:24:16.488Z,3.40
2017-08-21T03:26:43.967Z,2.53
2017-08-21T03:29:11.478Z,3.03
2017-08-21T03:31:38.969Z,3.10
2017-08-21T03:34:06.466Z,3.23
2017-08-21T03:36:34.707Z,2.87
2017-08-21T03:39:02.219Z,3.00
2017-08-21T03:41:29.702Z,3.00
2017-08-21T03:43:57.206Z,3.00
2017-08-21T03:46:24.690Z,2.97
2017-08-21T03:48:52.188Z,3.17
2017-08-21T03:51:19.679Z,3.07
2017-08-21T03:53:47.192Z,2.70
2017-08-21T03:56:14.686Z,2.80
2017-08-21T03:58:42.184Z,3.00
2017-08-21T04:01:09.668Z,3.22
2017-08-21T04:03:37.197Z,2.53
2017-08-21T04:06:04.701Z,3.27
2017-08-21T04:08:32.208Z,2.70
2017-08-21T04:11:00.466Z,3.43
2017-08-21T04:13:27.942Z,3.60
2017-08-21T04:15:55.448Z,3.03
2017-08-21T04:18:22.936Z,3.27
2017-08-21T04:20:50.429Z,3.00
2017-08-21T04:23:17.932Z,3.70
2017-08-21T04:25:45.441Z,3.40
2017-08-21T04:28:12.924Z,3.20
2017-08-21T04:30:40.416Z,2.83
2017-08-21T04:33:07.904Z,2.70
2017-08-21T04:35:35.419Z,2.87
2017-08-21T04:38:02.913Z,2.60
2017-08-21T04:40:30.427Z,3.10
2017-08-21T04:42:57.914Z,6.87
2017-08-21T04:45:26.091Z,2.80
2017-08-21T04:47:53.558Z,2.50
2017-08-21T04:50:21.835Z,2.80
2017-08-21T04:52:50.091Z,2.83
2017-08-21T04:55:17.589Z,3.03
2017-08-21T04:57:45.066Z,3.00
2017-08-21T05:00:12.605Z,3.00
2017-08-21T05:02:40.092Z,2.47
2017-08-21T05:05:07.610Z,2.80
2017-08-21T05:07:35.122Z,2.90
2017-08-21T05:10:02.611Z,2.93
2017-08-21T05:12:30.114Z,3.40
2017-08-21T05:14:57.644Z,2.93
2017-08-21T05:17:25.912Z,2.53
2017-08-21T05:19:54.176Z,3.00
2017-08-21T05:22:21.687Z,3.40
2017-08-21T05:24:49.190Z,2.90
2017-08-21T05:27:16.688Z,3.20
2017-08-21T05:29:44.174Z,2.87
2017-08-21T05:32:11.677Z,3.00
2017-08-21T05:34:39.172Z,3.00
2017-08-21T05:37:06.688Z,3.33
2017-08-21T05:39:34.332Z,2.80
2017-08-21T05:42:01.831Z,3.10
2017-08-21T05:44:29.317Z,3.30
2017-08-21T05:46:56.825Z,3.17
2017-08-21T05:49:24.302Z,3.40
2017-08-21T05:51:51.807Z,3.20
2017-08-21T05:54:19.301Z,2.80
2017-08-21T05:56:46.795Z,3.10
2017-08-21T05:59:14.283Z,3.70
2017-08-21T06:01:41.771Z,3.20
2017-08-21T06:04:09.272Z,3.10
2017-08-21T06:06:36.784Z,4.23
2017-08-21T06:09:04.305Z,3.30
2017-08-21T06:11:31.802Z,3.43
2017-08-21T06:13:59.295Z,2.63
2017-08-21T06:16:26.766Z,3.40
2017-08-21T06:18:54.289Z,2.97
2017-08-21T06:21:22.541Z,3.30
2017-08-21T06:23:50.042Z,2.70
2017-08-21T06:26:17.538Z,2.77
2017-08-21T06:28:45.033Z,2.33
2017-08-21T06:31:12.543Z,2.67
2017-08-21T06:33:40.034Z,2.47
2017-08-21T06:36:07.528Z,2.62
2017-08-21T06:38:35.806Z,6.40
2017-08-21T06:41:03.304Z,2.73
2017-08-21T06:43:30.816Z,3.40
2017-08-21T06:45:58.307Z,2.60
2017-08-21T06:48:25.814Z,2.83
2017-08-21T06:50:53.284Z,2.47
2017-08-21T06:53:21.551Z,2.60
2017-08-21T06:55:49.085Z,2.50
2017-08-21T06:58:16.607Z,3.43
2017-08-21T07:00:44.111Z,2.50
2017-08-21T07:03:11.604Z,2.80
2017-08-21T07:05:39.099Z,2.87
2017-08-21T07:08:06.625Z,3.07
2017-08-21T07:10:34.136Z,2.78
2017-08-21T07:13:01.646Z,3.00
2017-08-21T07:15:29.144Z,2.80
2017-08-21T07:17:56.633Z,2.60
2017-08-21T07:20:24.126Z,2.50
2017-08-21T07:22:51.605Z,2.37
2017-08-21T07:25:19.115Z,3.40
2017-08-21T07:27:47.362Z,3.03
2017-08-21T07:30:14.859Z,2.43
2017-08-21T07:32:43.145Z,2.67
2017-08-21T07:35:10.658Z,2.70
2017-08-21T07:37:38.160Z,2.20
2017-08-21T07:40:05.687Z,2.47
2017-08-21T07:42:33.180Z,2.70
2017-08-21T07:45:00.674Z,2.23
2017-08-21T07:47:28.159Z,2.50
2017-08-21T07:49:55.675Z,2.80
2017-08-21T07:52:23.154Z,2.50
2017-08-21T07:54:50.672Z,2.60
2017-08-21T07:57:18.162Z,2.70
2017-08-21T07:59:45.679Z,2.23
2017-08-21T08:02:13.161Z,2.77
2017-08-21T08:04:40.662Z,3.33
2017-08-21T08:07:08.170Z,2.93
2017-08-21T08:09:35.659Z,2.73
2017-08-21T08:12:03.162Z,2.70
2017-08-21T08:14:30.663Z,2.87
2017-08-21T08:16:58.173Z,2.97
2017-08-21T08:19:25.673Z,4.00
2017-08-21T08:21:53.171Z,3.97
2017-08-21T08:24:24.410Z,3.60
2017-08-21T08:26:51.915Z,3.93
2017-08-21T08:29:19.399Z,3.40
2017-08-21T08:31:46.900Z,3.13
2017-08-21T08:34:14.403Z,3.30
2017-08-21T08:36:41.923Z,2.67
2017-08-21T08:39:10.207Z,2.90
2017-08-21T08:41:38.488Z,2.80
2017-08-21T08:44:06.741Z,3.27
2017-08-21T08:46:34.247Z,2.73
2017-08-21T08:49:01.740Z,3.70
2017-08-21T08:51:29.252Z,2.53
2017-08-21T08:53:56.746Z,2.60
2017-08-21T08:56:24.249Z,3.10
2017-08-21T08:58:52.505Z,2.60
2017-08-21T09:01:20.009Z,2.60
2017-08-21T09:03:47.504Z,2.67
2017-08-21T09:06:14.992Z,2.47
2017-08-21T09:08:42.471Z,2.07
2017-08-21T09:11:10.597Z,2.10
2017-08-21T09:13:38.090Z,2.17
2017-08-21T09:16:06.388Z,1.83
2017-08-21T09:18:33.886Z,2.60
2017-08-21T09:21:01.396Z,2.10
2017-08-21T09:23:29.632Z,2.33
2017-08-21T09:25:57.131Z,2.03
2017-08-21T09:28:25.394Z,1.90
2017-08-21T09:30:52.890Z,2.60
2017-08-21T09:33:20.417Z,1.77
2017-08-21T09:35:47.902Z,2.37
2017-08-21T09:38:15.414Z,2.40
2017-08-21T09:40:42.925Z,1.63
2017-08-21T09:43:10.439Z,1.93
2017-08-21T09:45:37.932Z,2.00
2017-08-21T09:48:05.433Z,2.10
2017-08-21T09:50:32.943Z,1.83
2017-08-21T09:53:00.445Z,1.70
2017-08-21T09:55:27.955Z,1.60
2017-08-21T09:57:55.495Z,1.97
2017-08-21T10:00:23.752Z,1.97
2017-08-21T10:02:51.233Z,2.40
2017-08-21T10:06:01.607Z,2.07
2017-08-21T10:08:29.155Z,1.70
2017-08-21T10:10:56.646Z,1.90
2017-08-21T10:13:24.130Z,1.80
2017-08-21T10:15:51.662Z,1.92
2017-08-21T10:18:19.166Z,1.80
2017-08-21T10:20:46.679Z,2.50
2017-08-21T10:23:14.147Z,2.00
2017-08-21T10:25:41.647Z,1.70
2017-08-21T10:28:09.145Z,2.03
2017-08-21T10:30:36.643Z,1.87
2017-08-21T10:33:04.129Z,2.20
2017-08-21T10:35:31.618Z,1.57
2017-08-21T10:37:59.100Z,2.08
2017-08-21T10:40:26.595Z,1.90
2017-08-21T10:42:54.098Z,1.90
2017-08-21T10:45:21.590Z,1.90
2017-08-21T10:47:49.068Z,1.80
2017-08-21T10:50:16.560Z,2.00
2017-08-21T10:52:44.037Z,1.80
2017-08-21T10:55:11.725Z,1.80
2017-08-21T10:57:39.208Z,1.90
2017-08-21T11:00:06.699Z,1.87
2017-08-21T11:02:34.207Z,2.10
2017-08-21T11:05:01.681Z,1.80
2017-08-21T11:07:29.181Z,2.10
2017-08-21T11:09:56.667Z,2.00
2017-08-21T11:12:24.160Z,2.40
2017-08-21T11:14:51.684Z,1.77
2017-08-21T11:17:19.170Z,1.67
2017-08-21T11:19:46.672Z,1.80
2017-08-21T11:22:14.176Z,1.90
2017-08-21T11:24:41.667Z,1.60
2017-08-21T11:27:09.171Z,2.10
2017-08-21T11:29:36.662Z,1.73
2017-08-21T11:32:04.167Z,2.13
2017-08-21T11:34:31.637Z,1.90
2017-08-21T11:36:59.125Z,1.80
2017-08-21T11:39:26.607Z,2.00
2017-08-21T11:41:54.882Z,2.23
2017-08-21T11:44:22.363Z,2.00
2017-08-21T11:46:49.885Z,2.30
2017-08-21T11:49:17.366Z,1.87
2017-08-21T11:51:44.869Z,2.47
2017-08-21T11:54:12.370Z,1.90
2017-08-21T11:56:39.851Z,1.73
2017-08-21T11:59:07.346Z,1.80
2017-08-21T12:01:34.831Z,1.90
2017-08-21T12:04:02.411Z,1.77
2017-08-21T12:06:29.890Z,1.80
2017-08-21T12:08:57.390Z,2.10
2017-08-21T12:11:24.895Z,2.00
2017-08-21T12:13:52.403Z,1.90
2017-08-21T12:16:19.903Z,14.90
2017-08-21T12:18:47.421Z,2.60
2017-08-21T12:21:14.910Z,7.80
2017-08-21T12:23:42.414Z,22.03
2017-08-21T12:26:09.942Z,5.93
2017-08-21T12:28:38.378Z,9.03
2017-08-21T12:31:05.874Z,3.03
2017-08-21T12:33:33.364Z,8.20
2017-08-21T12:36:00.865Z,9.33
2017-08-21T12:38:28.430Z,15.07
2017-08-21T12:40:55.977Z,28.37
2017-08-21T12:43:23.469Z,5.03
2017-08-21T12:45:50.998Z,8.77
2017-08-21T12:48:18.501Z,4.70
2017-08-21T12:50:46.003Z,3.53
2017-08-21T12:53:13.539Z,17.97
2017-08-21T12:55:41.054Z,3.10
2017-08-21T12:58:08.544Z,2.83
2017-08-21T13:00:36.051Z,2.37
2017-08-21T13:03:03.533Z,1.80
2017-08-21T13:05:31.043Z,3.33
2017-08-21T13:07:58.540Z,2.60
2017-08-21T13:10:26.046Z,1.90
2017-08-21T13:12:53.549Z,9.67
2017-08-21T13:15:21.059Z,11.13
2017-08-21T13:17:48.556Z,3.20
2017-08-21T13:20:16.077Z,2.47
2017-08-21T13:22:43.578Z,1.80
2017-08-21T13:25:11.091Z,1.65
2017-08-21T13:27:38.587Z,2.60
2017-08-21T13:30:06.082Z,1.70
2017-08-21T13:32:33.562Z,2.20
2017-08-21T13:35:01.060Z,2.83
2017-08-21T13:37:28.561Z,1.90
2017-08-21T13:39:56.060Z,2.30
2017-08-21T13:42:23.545Z,3.23
2017-08-21T13:47:44.297Z,6.83
2017-08-21T13:50:11.796Z,2.33
2017-08-21T13:52:39.294Z,4.60
2017-08-21T13:55:06.784Z,4.10
2017-08-21T13:57:35.527Z,3.92
2017-08-21T14:00:03.009Z,3.67
2017-08-21T14:02:30.499Z,3.10
2017-08-21T14:04:57.967Z,3.17
2017-08-21T14:07:25.484Z,3.07
2017-08-21T14:09:52.970Z,2.07
2017-08-21T14:12:20.480Z,12.20
2017-08-21T14:14:47.973Z,9.03
2017-08-21T14:17:15.477Z,3.93
2017-08-21T14:19:42.959Z,3.50
2017-08-21T14:22:10.479Z,3.00
2017-08-21T14:24:37.959Z,3.43
2017-08-21T14:27:05.471Z,2.30
2017-08-21T14:29:32.966Z,2.20
2017-08-21T14:32:00.454Z,2.70
2017-08-21T14:34:27.939Z,2.63
2017-08-21T14:36:55.574Z,1.90
2017-08-21T14:39:23.064Z,21.60
2017-08-21T14:41:50.598Z,6.90
2017-08-21T14:44:18.094Z,2.30
2017-08-21T14:46:45.591Z,9.27
2017-08-21T14:49:13.075Z,2.80
2017-08-21T14:51:40.581Z,2.80
2017-08-21T14:54:08.070Z,2.60
2017-08-21T14:56:35.562Z,2.30
2017-08-21T14:59:03.038Z,1.90
2017-08-21T15:01:30.535Z,2.30
2017-08-21T15:03:58.005Z,2.78
2017-08-21T15:06:25.505Z,2.40
2017-08-21T15:08:52.985Z,2.17
2017-08-21T15:11:20.501Z,2.10
2017-08-21T15:13:47.995Z,2.20
2017-08-21T15:16:15.485Z,2.05
2017-08-21T15:18:42.987Z,2.37
2017-08-21T15:21:10.493Z,2.70
2017-08-21T15:23:37.988Z,2.30
2017-08-21T15:26:05.460Z,2.53
2017-08-21T15:28:32.964Z,3.63
2017-08-21T15:31:00.448Z,2.83
2017-08-21T15:33:27.939Z,2.63
2017-08-21T15:35:55.426Z,3.33
2017-08-21T15:38:22.929Z,2.70
2017-08-21T15:40:50.410Z,2.40
2017-08-21T15:43:17.926Z,2.30
2017-08-21T15:45:45.436Z,2.10
2017-08-21T15:48:12.943Z,2.77
2017-08-21T15:50:40.446Z,2.60
2017-08-21T15:53:07.982Z,2.57
2017-08-21T15:55:35.478Z,2.70
2017-08-21T15:58:02.980Z,2.27
2017-08-21T16:00:30.495Z,2.07
2017-08-21T16:02:57.989Z,2.10
2017-08-21T16:05:26.227Z,2.07
2017-08-21T16:07:53.728Z,2.23
2017-08-21T16:10:22.234Z,2.90
2017-08-21T16:12:49.762Z,2.10
2017-08-21T16:15:17.240Z,2.33
2017-08-21T16:17:44.746Z,2.10
2017-08-21T16:20:12.259Z,2.80
2017-08-21T16:22:40.510Z,2.20
2017-08-21T16:25:08.003Z,2.30
2017-08-21T16:27:35.493Z,2.47
2017-08-21T16:30:02.990Z,2.03
2017-08-21T16:32:31.316Z,2.40
2017-08-21T16:34:58.849Z,2.23
2017-08-21T16:37:26.335Z,2.40
2017-08-21T16:39:53.812Z,1.90
2017-08-21T16:42:21.337Z,2.13
2017-08-21T16:44:48.826Z,1.97
2017-08-21T16:47:16.321Z,2.10
2017-08-21T16:49:43.798Z,2.20
2017-08-21T16:52:11.303Z,2.10
2017-08-21T16:54:40.212Z,4.00
2017-08-21T16:57:07.705Z,2.20
2017-08-21T16:59:35.198Z,2.00
2017-08-21T17:02:02.703Z,2.07
2017-08-21T17:04:30.186Z,2.50
2017-08-21T17:06:57.691Z,1.90
2017-08-21T17:09:25.177Z,2.10
2017-08-21T17:11:52.673Z,2.70
2017-08-21T17:14:20.162Z,1.90
2017-08-21T17:16:47.657Z,1.73
2017-08-21T17:19:15.159Z,2.20
2017-08-21T17:21:42.656Z,2.13
2017-08-21T17:24:10.130Z,2.03
2017-08-21T17:26:37.662Z,2.10
2017-08-21T17:29:05.159Z,3.17
2017-08-21T17:31:32.634Z,1.80
2017-08-21T17:34:00.141Z,1.97
2017-08-21T17:36:27.613Z,2.63
2017-08-21T17:38:55.127Z,1.90
2017-08-21T17:41:22.632Z,2.03
2017-08-21T17:43:50.139Z,1.90
2017-08-21T17:46:17.635Z,2.20
2017-08-21T17:48:45.134Z,2.17
2017-08-21T17:51:12.625Z,2.80
2017-08-21T17:53:40.120Z,2.10
2017-08-21T17:56:07.611Z,2.53
2017-08-21T17:58:35.115Z,2.10
2017-08-21T18:01:02.600Z,2.83
2017-08-21T18:03:30.178Z,2.20
2017-08-21T18:05:57.676Z,2.40
2017-08-21T18:08:25.175Z,2.83
2017-08-21T18:10:53.655Z,2.37
2017-08-21T18:13:21.164Z,2.67
2017-08-21T18:15:48.654Z,2.13
2017-08-21T18:18:16.182Z,2.23
2017-08-21T18:20:43.681Z,3.13
2017-08-21T18:23:11.175Z,2.40
2017-08-21T18:25:38.688Z,1.80
2017-08-21T18:28:06.196Z,2.47
2017-08-21T18:30:33.702Z,2.30
2017-08-21T18:33:01.197Z,2.30
2017-08-21T18:35:28.687Z,3.10
2017-08-21T18:37:56.180Z,2.17
2017-08-21T18:40:23.688Z,2.20
2017-08-21T18:42:51.188Z,2.50
2017-08-21T18:45:18.715Z,2.00
2017-08-21T18:47:46.200Z,2.12
2017-08-21T18:50:13.711Z,2.17
2017-08-21T18:52:41.195Z,2.27
2017-08-21T18:55:08.688Z,1.90
2017-08-21T18:57:37.142Z,2.23
2017-08-21T19:00:04.630Z,2.50
2017-08-21T19:02:32.126Z,3.50
2017-08-21T19:04:59.620Z,2.10
2017-08-21T19:07:27.101Z,2.40
2017-08-21T19:09:54.593Z,2.10
2017-08-21T19:12:22.079Z,1.90
2017-08-21T19:14:49.561Z,2.30
2017-08-21T19:17:17.052Z,2.40
2017-08-21T19:19:44.531Z,2.30
2017-08-21T19:22:12.810Z,2.20
2017-08-21T19:24:40.318Z,1.60
2017-08-21T19:27:07.809Z,2.23
2017-08-21T19:29:35.286Z,2.42
2017-08-21T19:32:02.784Z,2.30
2017-08-21T19:34:30.261Z,2.30
2017-08-21T19:36:57.765Z,3.00
2017-08-21T19:39:25.255Z,2.42
2017-08-21T19:41:52.765Z,2.50
2017-08-21T19:44:21.015Z,5.30
2017-08-21T19:46:48.527Z,15.23
2017-08-21T19:49:16.009Z,35.53
2017-08-21T19:51:43.518Z,36.30
2017-08-21T19:54:11.037Z,23.73
2017-08-21T19:56:38.534Z,20.40
2017-08-21T19:59:06.020Z,22.73
2017-08-21T20:01:33.540Z,17.63
2017-08-21T20:04:01.017Z,18.00
2017-08-21T20:06:28.498Z,16.30
2017-08-21T20:08:56.001Z,9.83
2017-08-21T20:11:23.485Z,7.93
2017-08-21T20:13:50.983Z,11.47
2017-08-21T20:16:18.477Z,10.50
2017-08-21T20:18:45.978Z,9.17
2017-08-21T20:21:13.476Z,12.70
2017-08-21T20:23:40.996Z,12.00
2017-08-21T20:26:08.504Z,11.80
2017-08-21T20:28:36.001Z,7.60
2017-08-21T20:31:03.496Z,6.20
2017-08-21T20:33:31.008Z,8.70
2017-08-21T20:35:58.474Z,9.70
2017-08-21T20:38:26.000Z,7.47
2017-08-21T20:40:53.492Z,8.40
2017-08-21T20:43:21.009Z,3.80
2017-08-21T20:45:48.500Z,2.73
2017-08-21T20:48:15.990Z,3.00
2017-08-21T20:50:43.478Z,2.73
2017-08-21T20:53:10.953Z,2.60
2017-08-21T20:55:38.436Z,3.50
2017-08-21T20:58:05.911Z,3.33
2017-08-21T21:00:33.412Z,3.83
2017-08-21T21:03:00.898Z,4.33
2017-08-21T21:05:28.406Z,3.70
2017-08-21T21:07:55.899Z,4.33
2017-08-21T21:10:23.387Z,2.70
2017-08-21T21:12:50.862Z,2.80
2017-08-21T21:15:18.348Z,2.60
2017-08-21T21:17:45.843Z,2.77
2017-08-21T21:20:13.341Z,3.07
2017-08-21T21:22:40.830Z,4.80
2017-08-21T21:25:08.326Z,2.93
2017-08-21T21:27:35.815Z,3.00
2017-08-21T21:30:03.298Z,2.90
2017-08-21T21:32:30.778Z,2.93
2017-08-21T21:34:58.270Z,2.42
2017-08-21T21:37:25.751Z,2.90
2017-08-21T21:39:53.246Z,2.20
2017-08-21T21:42:20.725Z,3.10
2017-08-21T21:44:48.211Z,2.63
2017-08-21T21:47:15.710Z,2.47
2017-08-21T21:49:43.185Z,2.53
2017-08-21T21:52:10.683Z,2.80
2017-08-21T21:54:38.183Z,2.73
2017-08-21T21:57:05.684Z,2.45
2017-08-21T21:59:33.169Z,2.60
2017-08-21T22:02:00.659Z,2.70
2017-08-21T22:04:28.138Z,2.57
2017-08-21T22:06:56.551Z,2.77
2017-08-21T22:09:24.038Z,2.60
2017-08-21T22:11:51.544Z,2.67
2017-08-21T22:14:19.017Z,2.60
2017-08-21T22:16:46.544Z,2.40
2017-08-21T22:19:14.026Z,2.70
2017-08-21T22:21:41.530Z,2.97
2017-08-21T22:24:09.012Z,2.40
2017-08-21T22:26:36.498Z,2.63
2017-08-21T22:29:03.985Z,2.73
2017-08-21T22:31:31.531Z,2.73
2017-08-21T22:33:59.017Z,2.73
2017-08-21T22:36:26.501Z,2.80
2017-08-21T22:38:53.992Z,2.93
2017-08-21T22:41:21.480Z,2.90
2017-08-21T22:43:49.003Z,3.90
2017-08-21T22:46:17.397Z,2.37
2017-08-21T22:48:44.942Z,3.00
2017-08-21T22:51:12.435Z,2.40
2017-08-21T22:53:39.948Z,3.23
2017-08-21T22:56:07.437Z,2.80
2017-08-21T22:58:34.947Z,2.30
2017-08-21T23:01:20.071Z,3.00
2017-08-21T23:03:47.559Z,2.97
2017-08-21T23:06:15.053Z,2.50
2017-08-21T23:08:42.541Z,2.80
2017-08-21T23:11:10.026Z,2.43
2017-08-21T23:13:37.515Z,2.50
2017-08-21T23:16:05.015Z,2.87
2017-08-21T23:18:32.500Z,2.70
2017-08-21T23:20:59.965Z,2.47
2017-08-21T23:23:27.481Z,2.87
2017-08-21T23:25:54.967Z,2.70
2017-08-21T23:28:22.448Z,2.23
2017-08-21T23:30:49.936Z,2.60
2017-08-21T23:33:17.454Z,2.67
2017-08-21T23:35:44.959Z,2.30
2017-08-21T23:38:12.444Z,2.17
2017-08-21T23:40:39.944Z,2.40
2017-08-21T23:43:07.429Z,2.87
2017-08-21T23:45:34.995Z,2.37
2017-08-21T23:48:02.483Z,2.70
2017-08-21T23:50:29.993Z,2.70
2017-08-21T23:52:57.473Z,2.73
2017-08-21T23:55:25.719Z,2.47
2017-08-21T23:57:53.189Z,2.87
